Time;durP1;ratioP1;P1;durP2;ratioP2;P2;SDS_P1;SDS_P2;PMS_P1;PMS_P2;Temp;Humidity;BMP_temperature;BMP_pressure;BME280_temperature;BME280_humidity;BME280_pressure;Samples;Min_cycle;Max_cycle;Signal;HPM_P1;HPM_P2
2023/02/25 00:01:06;;;;;;;11.88;7.80;;;;;;;7.40;87.29;96951.53;4198203;28;20199;-81
2023/02/25 00:03:09;;;;;;;10.10;7.78;;;;;;;7.40;87.93;96954.13;4182774;28;20816;-82
2023/02/25 00:05:13;;;;;;;9.70;7.38;;;;;;;7.42;88.57;96952.22;4199007;28;20239;-82
2023/02/25 00:07:16;;;;;;;12.38;8.85;;;;;;;7.37;86.64;96954.34;4189145;28;20228;-81
2023/02/25 00:09:19;;;;;;;10.10;7.03;;;;;;;7.40;88.11;96958.50;4185325;28;21540;-82
2023/02/25 00:11:23;;;;;;;9.63;7.20;;;;;;;7.38;87.84;96963.78;4187727;28;20204;-82
2023/02/25 00:13:27;;;;;;;11.07;7.72;;;;;;;7.37;87.80;96963.91;4190118;28;20595;-81
2023/02/25 00:15:31;;;;;;;9.23;6.60;;;;;;;7.33;87.53;96962.47;4184341;28;20706;-83
2023/02/25 00:17:36;;;;;;;10.43;7.45;;;;;;;7.33;88.55;96960.69;4202903;28;20212;-80
2023/02/25 00:19:40;;;;;;;9.52;7.03;;;;;;;7.32;86.83;96971.16;4206270;28;20294;-80
2023/02/25 00:21:43;;;;;;;9.55;6.72;;;;;;;7.33;88.32;96960.69;4200591;28;20509;-80
2023/02/25 00:23:48;;;;;;;11.57;7.20;;;;;;;7.33;87.44;96963.28;4199387;28;20198;-80
2023/02/25 00:25:58;;;;;;;12.18;7.95;;;;;;;7.39;87.46;96962.00;4196370;28;20811;-80
2023/02/25 00:28:05;;;;;;;11.50;7.63;;;;;;;7.39;87.66;96957.63;4201341;28;20193;-80
2023/02/25 00:30:10;;;;;;;9.98;7.40;;;;;;;7.38;87.16;96961.19;4194555;28;20210;-80
2023/02/25 00:32:15;;;;;;;12.95;7.60;;;;;;;7.40;86.43;96954.13;4200153;28;20226;-80
2023/02/25 00:34:19;;;;;;;13.15;7.45;;;;;;;7.37;86.32;96958.72;4198132;28;20201;-80
2023/02/25 00:36:24;;;;;;;9.60;7.47;;;;;;;7.36;86.69;96959.66;4189515;28;20224;-79
2023/02/25 00:38:28;;;;;;;10.40;7.55;;;;;;;7.34;86.83;96949.38;4201084;28;20216;-79
2023/02/25 00:40:31;;;;;;;12.25;7.28;;;;;;;7.38;86.68;96955.16;4201808;28;20615;-79
2023/02/25 00:42:34;;;;;;;12.55;7.03;;;;;;;7.39;87.50;96955.03;4184783;28;20318;-79
2023/02/25 00:44:38;;;;;;;8.98;7.00;;;;;;;7.40;85.45;96958.50;4202180;28;20209;-79
2023/02/25 00:46:41;;;;;;;8.90;6.28;;;;;;;7.34;85.78;96954.56;4202999;28;20693;-80
2023/02/25 00:48:46;;;;;;;10.43;6.03;;;;;;;7.31;86.40;96956.56;4187691;28;20206;-80
2023/02/25 00:50:49;;;;;;;12.05;5.90;;;;;;;7.32;85.10;96972.00;4202423;28;20216;-80
2023/02/25 00:52:52;;;;;;;8.50;6.43;;;;;;;7.30;85.57;96962.69;4202044;28;20983;-80
2023/02/25 00:54:56;;;;;;;9.20;6.82;;;;;;;7.25;85.91;96964.81;4196022;28;20210;-79
2023/02/25 00:56:59;;;;;;;13.68;7.50;;;;;;;7.13;86.77;96966.50;4195145;28;20219;-80
2023/02/25 00:59:02;;;;;;;7.30;6.10;;;;;;;7.10;86.38;96966.72;4190852;28;20281;-80
2023/02/25 01:01:07;;;;;;;8.95;6.80;;;;;;;7.11;86.60;96967.53;4178434;28;20222;-80
2023/02/25 01:03:11;;;;;;;9.27;7.20;;;;;;;7.06;87.63;96970.47;4186286;28;20271;-79
2023/02/25 01:05:16;;;;;;;9.60;6.95;;;;;;;7.05;87.63;96958.47;4202357;28;20205;-80
2023/02/25 01:07:20;;;;;;;12.32;8.45;;;;;;;7.01;87.92;96950.22;4195911;28;20212;-79
2023/02/25 01:09:23;;;;;;;10.98;7.75;;;;;;;6.97;86.63;96949.59;4199014;28;20685;-80
2023/02/25 01:11:29;;;;;;;17.02;8.93;;;;;;;7.00;86.37;96951.97;4196580;28;20307;-80
2023/02/25 01:13:32;;;;;;;9.38;7.03;;;;;;;6.93;87.48;96944.72;4205933;28;20199;-80
2023/02/25 01:15:36;;;;;;;10.50;7.40;;;;;;;6.92;87.61;96951.69;4196692;28;20262;-80
2023/02/25 01:17:39;;;;;;;11.57;7.47;;;;;;;6.91;87.71;96946.63;4199348;28;20251;-79
2023/02/25 01:19:43;;;;;;;12.38;7.07;;;;;;;6.88;88.61;96945.06;4188701;28;20323;-80
2023/02/25 01:21:53;;;;;;;9.10;6.53;;;;;;;6.86;87.34;96949.53;4202098;28;20209;-80
2023/02/25 01:23:58;;;;;;;9.05;6.07;;;;;;;6.87;87.69;96958.13;4179855;28;20215;-80
2023/02/25 01:26:03;;;;;;;9.00;6.07;;;;;;;6.88;86.57;96957.19;4206017;28;20257;-80
2023/02/25 01:28:06;;;;;;;9.05;6.00;;;;;;;6.91;86.93;96964.75;4202033;28;20235;-80
2023/02/25 01:30:11;;;;;;;10.20;6.50;;;;;;;6.91;86.11;96967.34;4184139;28;20206;-80
2023/02/25 01:32:15;;;;;;;7.10;5.60;;;;;;;6.95;87.07;96966.19;4199572;28;20228;-80
2023/02/25 01:34:18;;;;;;;8.07;5.80;;;;;;;6.98;87.51;96958.22;4193454;28;20265;-80
2023/02/25 01:36:23;;;;;;;7.38;5.90;;;;;;;6.99;86.35;96965.03;4200068;28;20231;-80
2023/02/25 01:38:29;;;;;;;6.68;5.60;;;;;;;7.04;86.78;96967.19;4204252;28;20218;-80
2023/02/25 01:40:32;;;;;;;7.13;5.80;;;;;;;7.05;86.77;96971.44;4204260;28;20232;-80
2023/02/25 01:42:36;;;;;;;9.23;5.60;;;;;;;7.08;87.63;96978.13;4191294;28;20229;-82
2023/02/25 01:45:16;;;;;;;8.70;5.88;;;;;;;7.08;87.49;96981.56;4198512;28;20206;-80
2023/02/25 01:47:20;;;;;;;9.80;6.05;;;;;;;7.10;86.62;96978.88;4198795;28;20676;-80
2023/02/25 01:49:27;;;;;;;8.30;5.68;;;;;;;7.09;88.13;96978.03;4207241;28;20208;-79
2023/02/25 01:51:31;;;;;;;8.13;5.78;;;;;;;7.10;87.71;96986.66;4198347;28;20235;-79
2023/02/25 01:53:39;;;;;;;11.05;7.10;;;;;;;7.10;87.78;96987.47;4196268;28;20195;-80
2023/02/25 01:55:42;;;;;;;9.25;6.28;;;;;;;7.11;86.79;96989.13;4200607;28;20205;-80
2023/02/25 01:57:45;;;;;;;8.27;6.50;;;;;;;7.11;87.60;97003.84;4190058;28;20231;-80
2023/02/25 01:59:49;;;;;;;7.65;5.63;;;;;;;7.11;87.90;97001.25;4186400;28;20208;-80
2023/02/25 02:01:53;;;;;;;7.50;5.93;;;;;;;7.14;87.42;96993.25;4179722;28;20871;-80
2023/02/25 02:03:56;;;;;;;7.07;6.32;;;;;;;7.13;87.01;96994.22;4189461;28;20227;-80
2023/02/25 02:06:03;;;;;;;12.00;6.10;;;;;;;7.15;87.26;96997.50;4186338;28;20246;-80
2023/02/25 02:08:07;;;;;;;9.68;5.78;;;;;;;7.13;86.45;96997.63;4185288;28;20251;-80
2023/02/25 02:10:12;;;;;;;8.98;5.85;;;;;;;7.06;86.16;96980.03;4194096;28;20315;-80
2023/02/25 02:12:15;;;;;;;9.88;6.40;;;;;;;7.06;85.07;96977.44;4198261;28;20784;-80
2023/02/25 02:14:21;;;;;;;5.68;4.38;;;;;;;7.09;83.83;96980.63;4182199;28;20210;-80
2023/02/25 02:16:41;;;;;;;6.28;4.30;;;;;;;7.04;83.87;96977.53;4195410;28;20205;-79
2023/02/25 02:18:48;;;;;;;6.35;4.80;;;;;;;6.94;84.14;96975.72;4183008;28;20216;-80
2023/02/25 02:20:58;;;;;;;6.38;4.70;;;;;;;6.92;83.97;96975.00;4197092;28;20233;-80
2023/02/25 02:23:22;;;;;;;6.20;4.30;;;;;;;6.94;83.69;96972.31;4204137;28;20220;-79
2023/02/25 02:25:53;;;;;;;6.30;3.80;;;;;;;6.93;83.68;96968.91;4182208;28;20256;-80
2023/02/25 02:28:32;;;;;;;12.27;3.80;;;;;;;6.92;83.09;96982.78;4196473;28;20312;-80
2023/02/25 02:30:41;;;;;;;6.38;4.47;;;;;;;6.89;84.65;96979.59;4201182;28;20224;-79
2023/02/25 02:32:50;;;;;;;7.22;4.18;;;;;;;6.90;84.54;96989.00;4180519;28;20197;-80
2023/02/25 02:34:59;;;;;;;5.55;4.30;;;;;;;6.94;84.22;96987.84;4189411;28;20206;-79
2023/02/25 02:37:14;;;;;;;5.20;4.00;;;;;;;6.89;83.67;96988.19;4186209;28;20763;-79
2023/02/25 02:39:25;;;;;;;6.50;4.03;;;;;;;6.83;83.89;96988.63;4181727;28;20210;-79
2023/02/25 02:41:33;;;;;;;9.98;4.43;;;;;;;6.83;83.67;96993.00;4187756;28;20217;-79
2023/02/25 02:43:41;;;;;;;6.72;3.85;;;;;;;6.84;83.73;96997.22;4203721;28;20227;-79
2023/02/25 02:45:47;;;;;;;7.80;5.28;;;;;;;6.88;82.79;97001.25;4196590;28;20209;-79
2023/02/25 02:47:54;;;;;;;6.40;4.07;;;;;;;6.86;83.12;97000.53;4203403;28;20747;-79
2023/02/25 02:50:00;;;;;;;6.65;3.80;;;;;;;6.86;83.21;97005.72;4183739;28;20296;-80
2023/02/25 02:52:07;;;;;;;6.15;3.90;;;;;;;6.85;83.65;97001.47;4183206;28;20214;-80
2023/02/25 02:54:14;;;;;;;7.25;3.88;;;;;;;6.83;83.19;97013.72;4185388;28;20211;-79
2023/02/25 02:56:18;;;;;;;6.60;3.80;;;;;;;6.82;83.39;97014.63;4193858;28;20199;-80
2023/02/25 02:58:26;;;;;;;7.13;4.57;;;;;;;6.90;82.88;97025.28;4178671;28;20202;-80
2023/02/25 03:00:33;;;;;;;6.00;4.03;;;;;;;6.89;83.09;97023.66;4197980;28;20202;-80
2023/02/25 03:02:38;;;;;;;7.45;4.50;;;;;;;6.88;83.26;97016.81;4189280;28;20237;-80
2023/02/25 03:04:45;;;;;;;7.18;4.13;;;;;;;6.88;83.42;97024.56;4204339;28;20228;-82
2023/02/25 03:06:51;;;;;;;7.07;4.00;;;;;;;6.84;83.03;97016.19;4196209;28;20223;-80
2023/02/25 03:08:58;;;;;;;7.10;4.70;;;;;;;6.91;82.87;97016.59;4200032;28;20229;-80
2023/02/25 03:11:01;;;;;;;7.88;3.90;;;;;;;6.80;81.70;97029.47;4204537;28;20204;-80
2023/02/25 03:13:04;;;;;;;6.65;3.83;;;;;;;6.71;82.79;97024.94;4198152;28;20206;-80
2023/02/25 03:15:08;;;;;;;7.75;4.30;;;;;;;6.69;83.27;97031.97;4200835;28;20219;-80
2023/02/25 03:17:14;;;;;;;10.07;4.22;;;;;;;6.66;82.69;97022.66;4183685;28;20300;-80
2023/02/25 03:19:20;;;;;;;5.97;4.00;;;;;;;6.63;83.49;97029.81;4181962;28;20351;-80
2023/02/25 03:21:28;;;;;;;5.63;3.50;;;;;;;6.62;82.79;97016.03;4202495;28;20306;-80
2023/02/25 03:23:32;;;;;;;6.00;3.28;;;;;;;6.58;82.13;97014.63;4212918;28;20404;-80
2023/02/25 03:25:38;;;;;;;8.93;3.90;;;;;;;6.57;82.30;97019.91;4197309;28;20850;-80
2023/02/25 03:27:43;;;;;;;6.97;3.72;;;;;;;6.55;82.47;97018.34;4198926;28;20302;-80
2023/02/25 03:29:49;;;;;;;8.77;3.58;;;;;;;6.54;83.06;97025.28;4190018;28;20209;-80
2023/02/25 03:31:56;;;;;;;6.72;3.83;;;;;;;6.50;82.34;97016.06;4202488;28;20222;-80
2023/02/25 03:34:03;;;;;;;7.35;3.70;;;;;;;6.56;82.78;97017.41;4181773;28;20203;-80
2023/02/25 03:36:11;;;;;;;7.57;3.60;;;;;;;6.52;82.19;97014.19;4183273;28;20217;-80
2023/02/25 03:38:20;;;;;;;11.40;3.70;;;;;;;6.48;82.57;97017.94;4181617;28;20264;-80
2023/02/25 03:40:26;;;;;;;8.38;3.80;;;;;;;6.43;83.03;97025.19;4186984;28;20217;-80
2023/02/25 03:42:33;;;;;;;12.35;3.40;;;;;;;6.41;82.65;97021.06;4197133;28;20221;-80
2023/02/25 03:44:42;;;;;;;9.07;3.30;;;;;;;6.37;82.79;97028.19;4184476;28;20402;-80
2023/02/25 03:46:47;;;;;;;6.20;4.00;;;;;;;6.38;82.00;97037.63;4197088;28;20195;-80
2023/02/25 03:48:51;;;;;;;4.53;3.60;;;;;;;6.35;82.20;97030.06;4182047;28;20240;-80
2023/02/25 03:50:59;;;;;;;6.53;3.83;;;;;;;6.38;82.89;97036.81;4201206;28;20811;-80
2023/02/25 03:53:03;;;;;;;7.78;3.40;;;;;;;6.38;82.08;97040.22;4196146;28;20236;-80
2023/02/25 03:55:24;;;;;;;9.35;3.55;;;;;;;6.41;82.18;97044.38;4197062;28;20689;-80
2023/02/25 03:57:35;;;;;;;7.28;3.00;;;;;;;6.39;82.16;97048.81;4196597;28;20287;-80
2023/02/25 03:59:39;;;;;;;7.20;3.45;;;;;;;6.42;82.72;97057.22;4198163;28;20215;-80
2023/02/25 04:01:43;;;;;;;6.25;3.58;;;;;;;6.43;83.52;97055.44;4202471;28;20230;-80
2023/02/25 04:03:46;;;;;;;7.38;3.67;;;;;;;6.43;83.01;97061.44;4184637;28;20205;-79
2023/02/25 04:05:50;;;;;;;5.93;3.30;;;;;;;6.48;83.44;97072.34;4180154;28;20812;-81
2023/02/25 04:07:53;;;;;;;7.45;2.75;;;;;;;6.52;83.46;97062.56;4203571;28;20259;-81
2023/02/25 04:09:57;;;;;;;6.75;3.78;;;;;;;6.51;82.84;97066.09;4187129;28;20566;-81
2023/02/25 04:12:01;;;;;;;7.90;4.00;;;;;;;6.52;83.09;97073.75;4206063;28;20212;-81
2023/02/25 04:14:05;;;;;;;7.55;3.83;;;;;;;6.56;83.37;97061.44;4193473;28;20201;-82
2023/02/25 04:16:08;;;;;;;5.70;3.10;;;;;;;6.58;82.62;97073.34;4197934;28;20205;-82
2023/02/25 04:18:12;;;;;;;6.68;3.65;;;;;;;6.58;83.32;97068.16;4185077;28;20662;-82
2023/02/25 04:20:16;;;;;;;7.35;3.30;;;;;;;6.60;82.52;97071.50;4187050;28;20218;-82
2023/02/25 04:22:19;;;;;;;6.35;3.63;;;;;;;6.62;83.30;97079.97;4178975;28;20762;-81
2023/02/25 04:24:22;;;;;;;9.00;3.83;;;;;;;6.63;83.03;97079.00;4198553;28;20273;-81
2023/02/25 04:26:25;;;;;;;6.22;3.78;;;;;;;6.64;83.62;97078.09;4200988;28;20209;-82
2023/02/25 04:28:29;;;;;;;5.45;3.28;;;;;;;6.66;83.12;97081.41;4200350;28;20202;-81
2023/02/25 04:30:33;;;;;;;8.15;3.90;;;;;;;6.61;82.80;97073.97;4194768;28;20238;-82
2023/02/25 04:32:36;;;;;;;5.85;3.17;;;;;;;6.64;83.63;97072.91;4196797;28;20603;-81
2023/02/25 04:34:39;;;;;;;6.45;3.33;;;;;;;6.64;82.94;97070.31;4199505;28;20247;-79
2023/02/25 04:36:43;;;;;;;8.07;3.90;;;;;;;6.65;83.47;97069.41;4196361;28;20214;-79
2023/02/25 04:38:46;;;;;;;6.40;4.28;;;;;;;6.66;83.66;97078.81;4198093;28;20258;-79
2023/02/25 04:40:51;;;;;;;5.63;3.67;;;;;;;6.68;83.86;97085.53;4184323;28;20294;-79
2023/02/25 04:42:54;;;;;;;6.93;4.07;;;;;;;6.68;83.53;97082.97;4200836;28;20266;-79
2023/02/25 04:44:58;;;;;;;6.60;3.90;;;;;;;6.68;82.83;97085.53;4198695;28;20234;-79
2023/02/25 04:47:01;;;;;;;6.18;3.55;;;;;;;6.70;83.37;97090.63;4194661;28;20205;-79
2023/02/25 04:49:05;;;;;;;9.75;4.00;;;;;;;6.72;83.01;97091.34;4189670;28;20208;-80
2023/02/25 04:51:09;;;;;;;8.82;3.83;;;;;;;6.71;83.52;97087.13;4189947;28;20202;-79
2023/02/25 04:53:12;;;;;;;6.93;3.95;;;;;;;6.72;84.07;97088.75;4196194;28;20293;-81
2023/02/25 04:55:16;;;;;;;10.52;5.03;;;;;;;6.71;82.98;97098.28;4198143;28;20212;-81
2023/02/25 04:57:19;;;;;;;9.35;3.75;;;;;;;6.71;83.64;97092.28;4203024;28;20229;-80
2023/02/25 04:59:25;;;;;;;6.85;3.70;;;;;;;6.72;83.59;97088.75;4203839;28;20208;-79
2023/02/25 05:01:30;;;;;;;9.90;3.90;;;;;;;6.71;82.69;97092.28;4197668;28;20210;-79
2023/02/25 05:03:33;;;;;;;9.50;3.72;;;;;;;6.68;83.30;97087.31;4203469;28;20622;-79
2023/02/25 05:05:37;;;;;;;6.90;3.35;;;;;;;6.65;82.82;97092.72;4197550;28;20220;-80
2023/02/25 05:07:42;;;;;;;7.07;3.80;;;;;;;6.65;83.25;97087.53;4180852;28;20217;-79
2023/02/25 05:09:45;;;;;;;5.22;3.33;;;;;;;6.64;83.05;97091.03;4188114;28;20253;-79
2023/02/25 05:11:48;;;;;;;9.77;3.47;;;;;;;6.64;83.29;97104.00;4186656;28;20205;-79
2023/02/25 05:13:51;;;;;;;5.65;2.90;;;;;;;6.62;82.76;97101.50;4201629;28;20215;-79
2023/02/25 05:16:04;;;;;;;5.65;3.25;;;;;;;6.63;82.63;97100.59;4199001;28;20217;-79
2023/02/25 05:18:08;;;;;;;9.45;4.07;;;;;;;6.62;82.37;97098.09;4195679;28;20207;-82
2023/02/25 05:20:12;;;;;;;6.78;2.80;;;;;;;6.62;83.54;97098.91;4204536;28;20201;-82
2023/02/25 05:22:16;;;;;;;7.88;3.53;;;;;;;6.64;83.28;97096.22;4203298;28;20221;-82
2023/02/25 05:24:22;;;;;;;7.03;3.20;;;;;;;6.64;82.86;97088.44;4198415;28;20207;-82
2023/02/25 05:26:25;;;;;;;5.95;2.75;;;;;;;6.61;82.80;97093.84;4194879;28;20202;-82
2023/02/25 05:28:28;;;;;;;4.95;2.95;;;;;;;6.60;82.15;97094.81;4199073;28;20215;-82
2023/02/25 05:30:31;;;;;;;4.70;2.53;;;;;;;6.61;81.97;97086.06;4199215;28;20672;-82
2023/02/25 05:32:35;;;;;;;5.00;2.90;;;;;;;6.58;81.66;97083.69;4201457;28;20210;-84
2023/02/25 05:34:40;;;;;;;9.15;2.95;;;;;;;6.56;81.38;97077.81;4199512;28;20211;-82
2023/02/25 05:36:45;;;;;;;6.40;2.20;;;;;;;6.52;80.60;97070.34;4177767;28;20208;-82
2023/02/25 05:38:49;;;;;;;5.45;2.00;;;;;;;6.50;81.16;97073.03;4197033;28;20211;-82
2023/02/25 05:40:52;;;;;;;5.18;2.30;;;;;;;6.51;80.81;97076.44;4200495;28;20717;-82
2023/02/25 05:42:55;;;;;;;5.20;2.25;;;;;;;6.52;81.25;97076.34;4188556;28;21887;-82
2023/02/25 05:44:58;;;;;;;5.25;2.13;;;;;;;6.53;80.95;97075.44;4200944;28;20703;-82
2023/02/25 05:47:01;;;;;;;6.85;1.85;;;;;;;6.53;81.06;97072.03;4198482;28;20709;-82
2023/02/25 05:49:04;;;;;;;6.53;1.92;;;;;;;6.51;79.84;97071.28;4201493;28;20210;-82
2023/02/25 05:51:11;;;;;;;6.53;2.00;;;;;;;6.52;79.98;97078.94;4189330;28;20277;-82
2023/02/25 05:53:14;;;;;;;4.72;1.73;;;;;;;6.51;79.20;97081.63;4203598;28;20211;-82
2023/02/25 05:55:17;;;;;;;4.38;2.25;;;;;;;6.50;80.60;97082.59;4198372;28;20235;-82
2023/02/25 05:57:22;;;;;;;5.55;1.80;;;;;;;6.51;80.25;97079.88;4199032;28;20215;-82
2023/02/25 05:59:26;;;;;;;5.20;2.40;;;;;;;6.51;79.96;97085.06;4198962;28;20217;-82
2023/02/25 06:01:30;;;;;;;6.45;2.28;;;;;;;6.52;80.04;97085.88;4197968;28;20694;-82
2023/02/25 06:03:33;;;;;;;4.22;2.28;;;;;;;6.52;80.00;97085.88;4190324;28;20207;-82
2023/02/25 06:05:40;;;;;;;5.63;2.53;;;;;;;6.53;80.13;97090.16;4183670;28;20229;-82
2023/02/25 06:07:44;;;;;;;8.00;2.17;;;;;;;6.57;80.35;97100.19;4197334;28;20300;-82
2023/02/25 06:09:47;;;;;;;5.05;2.05;;;;;;;6.55;80.36;97098.63;4180946;28;20254;-82
2023/02/25 06:11:50;;;;;;;3.72;2.38;;;;;;;6.56;80.12;97095.13;4201413;28;20220;-82
2023/02/25 06:13:55;;;;;;;7.97;2.28;;;;;;;6.56;80.25;97095.94;4199215;28;20960;-82
2023/02/25 06:15:58;;;;;;;4.18;1.90;;;;;;;6.58;80.41;97094.06;4194016;28;20211;-82
2023/02/25 06:18:02;;;;;;;4.90;2.05;;;;;;;6.57;79.47;97100.19;4186144;28;20217;-82
2023/02/25 06:20:06;;;;;;;8.02;2.35;;;;;;;6.54;79.56;97095.22;4201639;28;20667;-81
2023/02/25 06:22:09;;;;;;;4.35;1.92;;;;;;;6.57;79.55;97103.59;4201260;28;20274;-82
2023/02/25 06:24:15;;;;;;;4.53;1.80;;;;;;;6.58;79.02;97112.19;4195414;28;20685;-82
2023/02/25 06:26:18;;;;;;;3.78;1.90;;;;;;;6.58;79.57;97117.38;4200855;28;20309;-82
2023/02/25 06:28:22;;;;;;;4.95;2.15;;;;;;;6.58;80.02;97117.38;4199974;28;20207;-82
2023/02/25 06:30:26;;;;;;;3.53;1.90;;;;;;;6.61;79.61;97117.16;4197679;28;20318;-82
2023/02/25 06:32:29;;;;;;;4.25;1.70;;;;;;;6.60;78.86;97111.16;4199486;28;20283;-82
2023/02/25 06:34:33;;;;;;;5.95;2.17;;;;;;;6.63;79.39;97115.28;4202661;28;20601;-82
2023/02/25 06:36:36;;;;;;;4.88;1.80;;;;;;;6.62;79.41;97105.88;4193021;28;20201;-82
2023/02/25 06:38:39;;;;;;;5.72;1.73;;;;;;;6.62;78.72;97111.88;4192167;28;20210;-82
2023/02/25 06:40:44;;;;;;;8.02;1.90;;;;;;;6.62;79.08;97108.47;4200891;28;20252;-82
2023/02/25 06:42:47;;;;;;;4.05;1.80;;;;;;;6.65;78.59;97103.88;4198799;28;20203;-82
2023/02/25 06:44:50;;;;;;;6.20;2.55;;;;;;;6.65;79.05;97108.25;4188758;28;20225;-82
2023/02/25 06:46:54;;;;;;;6.25;1.80;;;;;;;6.65;78.07;97108.25;4196244;28;20318;-82
2023/02/25 06:48:57;;;;;;;4.57;1.95;;;;;;;6.66;77.90;97107.31;4203048;28;20702;-82
2023/02/25 06:51:01;;;;;;;4.50;1.60;;;;;;;6.67;78.29;97111.56;4200015;28;20675;-82
2023/02/25 06:53:05;;;;;;;3.25;1.80;;;;;;;6.67;78.47;97121.91;4199981;28;20280;-82
2023/02/25 06:55:09;;;;;;;8.85;1.85;;;;;;;6.67;78.07;97121.91;4181962;28;20662;-82
2023/02/25 06:57:13;;;;;;;6.68;1.77;;;;;;;6.70;78.01;97124.31;4183583;28;20217;-82
2023/02/25 06:59:17;;;;;;;2.45;1.50;;;;;;;6.69;77.74;97126.06;4197415;28;20198;-82
2023/02/25 07:01:20;;;;;;;4.93;2.00;;;;;;;6.70;77.79;97127.72;4198654;28;20296;-82
2023/02/25 07:03:23;;;;;;;5.70;1.85;;;;;;;6.69;77.00;97135.59;4184799;28;20259;-82
2023/02/25 07:05:26;;;;;;;5.80;1.80;;;;;;;6.69;77.11;97125.22;4198387;28;20201;-82
2023/02/25 07:07:32;;;;;;;3.05;1.73;;;;;;;6.71;77.89;97128.56;4192539;28;20253;-82
2023/02/25 07:09:35;;;;;;;4.88;1.70;;;;;;;6.74;78.40;97129.16;4198430;28;20195;-82
2023/02/25 07:11:38;;;;;;;5.10;2.58;;;;;;;6.68;76.98;97119.22;4201296;28;20287;-82
2023/02/25 07:13:43;;;;;;;8.55;2.00;;;;;;;6.65;77.22;97136.75;4196636;28;20234;-82
2023/02/25 07:15:46;;;;;;;5.45;2.42;;;;;;;6.67;76.51;97137.47;4182737;28;20225;-82
2023/02/25 07:17:49;;;;;;;6.63;2.40;;;;;;;6.67;76.62;97146.03;4184246;28;20227;-82
2023/02/25 07:19:52;;;;;;;5.07;2.10;;;;;;;6.71;77.21;97154.47;4192460;28;20214;-82
2023/02/25 07:21:58;;;;;;;3.75;1.95;;;;;;;6.72;76.65;97151.78;4197283;28;20225;-82
2023/02/25 07:24:01;;;;;;;4.15;2.17;;;;;;;6.75;77.31;97141.19;4197213;28;20207;-82
2023/02/25 07:26:05;;;;;;;4.55;1.58;;;;;;;6.75;77.13;97145.53;4187454;28;20294;-82
2023/02/25 07:28:08;;;;;;;3.17;1.50;;;;;;;6.76;76.60;97142.84;4200436;28;20625;-82
2023/02/25 07:30:13;;;;;;;4.85;1.65;;;;;;;6.81;75.63;97152.88;4200472;28;20814;-82
2023/02/25 07:32:16;;;;;;;3.17;1.30;;;;;;;6.83;75.85;97158.81;4183217;28;20694;-82
2023/02/25 07:34:20;;;;;;;6.50;1.73;;;;;;;6.84;75.79;97163.03;4194591;28;20229;-82
2023/02/25 07:36:26;;;;;;;5.00;1.58;;;;;;;6.85;76.03;97143.97;4180655;28;20711;-82
2023/02/25 07:38:29;;;;;;;3.75;1.70;;;;;;;6.87;75.83;97144.69;4203580;28;20265;-82
2023/02/25 07:40:32;;;;;;;9.68;1.60;;;;;;;6.89;76.09;97145.44;4198536;28;20219;-82
2023/02/25 07:42:35;;;;;;;4.95;1.70;;;;;;;6.90;75.38;97145.31;4202520;28;20666;-82
2023/02/25 07:44:41;;;;;;;3.95;1.50;;;;;;;6.93;76.59;97142.53;4199020;28;20230;-82
2023/02/25 07:46:45;;;;;;;3.70;1.75;;;;;;;6.96;75.61;97147.50;4198533;28;20227;-82
2023/02/25 07:48:49;;;;;;;4.05;1.90;;;;;;;6.98;75.72;97126.66;4201963;28;20196;-82
2023/02/25 07:50:52;;;;;;;4.28;1.83;;;;;;;7.02;74.85;97130.69;4178429;28;20212;-82
2023/02/25 07:52:55;;;;;;;4.05;1.30;;;;;;;7.03;74.48;97140.94;4192831;28;20589;-82
2023/02/25 07:54:58;;;;;;;3.28;1.77;;;;;;;7.03;75.08;97136.56;4193801;28;20234;-82
2023/02/25 07:57:01;;;;;;;2.88;1.50;;;;;;;7.03;74.32;97141.75;4200356;28;20193;-83
2023/02/25 07:59:04;;;;;;;3.25;1.42;;;;;;;7.03;75.71;97146.94;4191023;28;20223;-82
2023/02/25 08:01:09;;;;;;;4.53;1.65;;;;;;;7.06;74.60;97141.53;4192353;28;20200;-79
2023/02/25 08:03:13;;;;;;;5.05;1.88;;;;;;;7.09;73.87;97143.91;4190828;28;20220;-77
2023/02/25 08:05:20;;;;;;;5.10;2.28;;;;;;;7.03;74.62;97133.16;4196501;28;20205;-77
2023/02/25 08:07:23;;;;;;;5.85;1.80;;;;;;;7.03;75.50;97134.94;4196240;28;20759;-76
2023/02/25 08:09:28;;;;;;;10.90;3.15;;;;;;;7.03;75.42;97126.19;4202833;28;20235;-77
2023/02/25 08:11:32;;;;;;;5.05;2.30;;;;;;;7.03;74.30;97127.16;4182698;28;20258;-78
2023/02/25 08:13:35;;;;;;;3.55;1.65;;;;;;;7.00;74.54;97135.97;4198314;28;20292;-79
2023/02/25 08:15:40;;;;;;;5.53;2.05;;;;;;;7.00;74.94;97135.16;4201847;28;20235;-78
2023/02/25 08:17:44;;;;;;;4.53;1.65;;;;;;;7.00;74.16;97135.97;4186512;28;20517;-79
2023/02/25 08:19:48;;;;;;;3.08;1.75;;;;;;;7.00;74.73;97141.16;4194291;28;20195;-78
2023/02/25 08:21:53;;;;;;;3.92;1.63;;;;;;;7.01;73.80;97142.00;4184055;28;20619;-77
2023/02/25 08:23:56;;;;;;;5.45;1.70;;;;;;;7.03;74.39;97152.13;4198091;28;20692;-78
2023/02/25 08:26:00;;;;;;;4.05;2.05;;;;;;;7.05;75.61;97164.97;4186052;28;20711;-79
2023/02/25 08:28:03;;;;;;;9.15;2.13;;;;;;;7.06;75.40;97167.47;4197752;28;20309;-78
2023/02/25 08:30:07;;;;;;;6.40;2.38;;;;;;;7.10;74.20;97158.53;4193773;28;20207;-80
2023/02/25 08:32:11;;;;;;;8.27;2.20;;;;;;;7.09;73.22;97162.06;4191702;28;20203;-80
2023/02/25 08:34:14;;;;;;;9.25;2.63;;;;;;;7.04;73.77;97163.34;4200734;28;20204;-80
2023/02/25 08:36:20;;;;;;;3.03;1.60;;;;;;;7.05;74.24;97149.41;4197447;28;20741;-79
2023/02/25 08:38:23;;;;;;;5.93;2.05;;;;;;;7.08;73.40;97159.56;4199293;28;20202;-79
2023/02/25 08:40:26;;;;;;;5.95;1.50;;;;;;;7.11;73.55;97160.22;4202589;28;20780;-80
2023/02/25 08:42:30;;;;;;;5.15;1.88;;;;;;;7.14;73.88;97159.16;4202546;28;20674;-80
2023/02/25 08:44:33;;;;;;;5.15;2.00;;;;;;;7.17;73.45;97159.78;4198842;28;20662;-80
2023/02/25 08:46:37;;;;;;;4.65;1.55;;;;;;;7.17;73.44;97164.13;4197779;28;20202;-80
2023/02/25 08:48:40;;;;;;;4.40;1.73;;;;;;;7.17;73.85;97162.38;4186347;28;20209;-78
2023/02/25 08:50:44;;;;;;;7.40;1.98;;;;;;;7.19;73.59;97162.28;4197852;28;20204;-79
2023/02/25 08:52:48;;;;;;;3.13;1.42;;;;;;;7.21;73.75;97148.25;4199122;28;20239;-79
2023/02/25 08:54:52;;;;;;;7.68;1.95;;;;;;;7.19;72.33;97154.50;4198825;28;20211;-78
2023/02/25 08:56:56;;;;;;;3.33;1.60;;;;;;;7.20;73.06;97162.16;4204813;28;20653;-78
2023/02/25 08:58:59;;;;;;;6.72;2.65;;;;;;;7.25;72.83;97156.66;4197574;28;20200;-78
2023/02/25 09:01:07;;;;;;;5.63;2.90;;;;;;;7.28;72.87;97151.25;4193538;28;20197;-78
2023/02/25 09:03:11;;;;;;;6.20;2.13;;;;;;;7.32;72.36;97150.94;4201827;28;20210;-78
2023/02/25 09:05:14;;;;;;;4.35;1.70;;;;;;;7.39;72.46;97154.72;4187313;28;20780;-78
2023/02/25 09:07:17;;;;;;;9.07;1.70;;;;;;;7.39;70.32;97153.91;4196400;28;20280;-78
2023/02/25 09:09:22;;;;;;;4.35;1.55;;;;;;;7.43;71.37;97156.19;4197179;28;20237;-81
2023/02/25 09:11:25;;;;;;;12.25;2.00;;;;;;;7.47;70.48;97152.41;4195661;28;20733;-79
2023/02/25 09:13:29;;;;;;;4.07;1.90;;;;;;;7.50;70.61;97162.56;4200448;28;20209;-80
2023/02/25 09:15:32;;;;;;;7.15;2.03;;;;;;;7.52;69.76;97152.94;4194887;28;20658;-79
2023/02/25 09:17:35;;;;;;;5.93;1.70;;;;;;;7.53;69.44;97157.16;4195029;28;20215;-80
2023/02/25 09:19:38;;;;;;;4.00;1.92;;;;;;;7.56;70.34;97152.63;4183181;28;20208;-81
2023/02/25 09:21:42;;;;;;;6.35;1.50;;;;;;;7.61;70.98;97155.69;4198205;28;20207;-81
2023/02/25 09:23:45;;;;;;;3.30;1.48;;;;;;;7.61;68.99;97157.47;4201480;28;20702;-83
2023/02/25 09:25:50;;;;;;;3.22;1.45;;;;;;;7.64;70.44;97152.06;4196636;28;20217;-82
2023/02/25 09:27:53;;;;;;;2.95;1.30;;;;;;;7.66;70.26;97155.38;4199396;28;20225;-85
2023/02/25 09:29:56;;;;;;;4.40;1.70;;;;;;;7.65;70.48;97151.09;4196586;28;20209;-83
2023/02/25 09:31:59;;;;;;;4.15;1.85;;;;;;;7.63;69.71;97153.00;4203374;28;20660;-86
2023/02/25 09:34:05;;;;;;;2.83;1.25;;;;;;;7.63;70.12;97159.00;4194160;28;20292;-89
2023/02/25 09:36:10;;;;;;;4.57;1.60;;;;;;;7.64;70.81;97150.28;4195098;28;20227;-87
2023/02/25 09:38:13;;;;;;;5.75;1.65;;;;;;;7.61;70.00;97149.69;4197646;28;20669;-87
2023/02/25 09:40:21;;;;;;;3.20;1.50;;;;;;;7.60;68.92;97161.00;4198157;28;20209;-85
2023/02/25 09:42:29;;;;;;;3.92;1.25;;;;;;;7.58;68.91;97149.91;4197535;28;20221;-84
2023/02/25 09:44:34;;;;;;;3.72;1.30;;;;;;;7.52;67.95;97147.75;4194041;28;20206;-84
2023/02/25 09:46:42;;;;;;;3.67;1.35;;;;;;;7.49;67.89;97151.38;4194952;28;20209;-85
2023/02/25 09:48:52;;;;;;;5.13;2.13;;;;;;;7.50;68.47;97144.41;4189169;28;20609;-86
2023/02/25 09:50:59;;;;;;;2.80;1.25;;;;;;;7.49;69.08;97150.56;4200698;28;20299;-84
2023/02/25 09:53:06;;;;;;;3.90;1.50;;;;;;;7.48;68.67;97148.91;4199606;28;20223;-84
2023/02/25 09:55:18;;;;;;;3.33;1.80;;;;;;;7.47;68.46;97155.00;4194646;28;20675;-83